sensor_id;sensor_type;location;lat;lon;timestamp;P1;durP1;ratioP1;P2;durP2;ratioP2
5458;SDS011;2752;49.992;8.422;2022-08-19T00:00:04;22.30;;;13.57;;
5458;SDS011;2752;49.992;8.422;2022-08-19T00:02:31;21.47;;;13.60;;
5458;SDS011;2752;49.992;8.422;2022-08-19T00:04:58;25.17;;;15.00;;
5458;SDS011;2752;49.992;8.422;2022-08-19T00:07:24;32.17;;;15.17;;
5458;SDS011;2752;49.992;8.422;2022-08-19T00:09:51;22.00;;;13.87;;
5458;SDS011;2752;49.992;8.422;2022-08-19T00:12:19;23.63;;;13.23;;
5458;SDS011;2752;49.992;8.422;2022-08-19T00:14:46;20.53;;;12.23;;
5458;SDS011;2752;49.992;8.422;2022-08-19T00:17:13;23.03;;;14.50;;
5458;SDS011;2752;49.992;8.422;2022-08-19T00:19:39;20.93;;;12.83;;
5458;SDS011;2752;49.992;8.422;2022-08-19T00:22:06;24.60;;;13.90;;
5458;SDS011;2752;49.992;8.422;2022-08-19T00:24:33;25.57;;;13.90;;
5458;SDS011;2752;49.992;8.422;2022-08-19T00:27:03;26.47;;;14.90;;
5458;SDS011;2752;49.992;8.422;2022-08-19T00:29:31;26.73;;;14.20;;
5458;SDS011;2752;49.992;8.422;2022-08-19T00:31:58;23.67;;;13.80;;
5458;SDS011;2752;49.992;8.422;2022-08-19T00:34:24;22.80;;;13.30;;
5458;SDS011;2752;49.992;8.422;2022-08-19T00:36:53;21.97;;;13.83;;
5458;SDS011;2752;49.992;8.422;2022-08-19T00:39:20;26.63;;;14.03;;
5458;SDS011;2752;49.992;8.422;2022-08-19T00:41:47;33.00;;;15.10;;
5458;SDS011;2752;49.992;8.422;2022-08-19T00:44:19;23.40;;;14.13;;
5458;SDS011;2752;49.992;8.422;2022-08-19T00:46:49;25.80;;;14.47;;
5458;SDS011;2752;49.992;8.422;2022-08-19T00:49:18;27.20;;;15.70;;
5458;SDS011;2752;49.992;8.422;2022-08-19T00:51:48;31.33;;;16.07;;
5458;SDS011;2752;49.992;8.422;2022-08-19T00:54:18;26.10;;;14.50;;
5458;SDS011;2752;49.992;8.422;2022-08-19T00:56:46;28.73;;;15.20;;
5458;SDS011;2752;49.992;8.422;2022-08-19T00:59:13;28.40;;;15.80;;
5458;SDS011;2752;49.992;8.422;2022-08-19T01:01:42;29.73;;;17.37;;
5458;SDS011;2752;49.992;8.422;2022-08-19T01:04:11;24.77;;;15.20;;
5458;SDS011;2752;49.992;8.422;2022-08-19T01:06:39;31.03;;;15.83;;
5458;SDS011;2752;49.992;8.422;2022-08-19T01:09:07;25.50;;;15.13;;
5458;SDS011;2752;49.992;8.422;2022-08-19T01:11:35;30.03;;;15.23;;
5458;SDS011;2752;49.992;8.422;2022-08-19T01:14:05;32.20;;;16.43;;
5458;SDS011;2752;49.992;8.422;2022-08-19T01:16:33;33.70;;;16.17;;
5458;SDS011;2752;49.992;8.422;2022-08-19T01:19:00;25.90;;;15.47;;
5458;SDS011;2752;49.992;8.422;2022-08-19T01:21:30;32.00;;;18.30;;
5458;SDS011;2752;49.992;8.422;2022-08-19T01:24:04;32.30;;;17.20;;
5458;SDS011;2752;49.992;8.422;2022-08-19T01:26:31;28.27;;;16.37;;
5458;SDS011;2752;49.992;8.422;2022-08-19T01:29:06;29.80;;;17.40;;
5458;SDS011;2752;49.992;8.422;2022-08-19T01:31:34;29.77;;;16.43;;
5458;SDS011;2752;49.992;8.422;2022-08-19T01:34:01;28.17;;;16.03;;
5458;SDS011;2752;49.992;8.422;2022-08-19T01:36:30;28.67;;;15.90;;
5458;SDS011;2752;49.992;8.422;2022-08-19T01:39:02;23.97;;;14.80;;
5458;SDS011;2752;49.992;8.422;2022-08-19T01:41:32;24.17;;;14.83;;
5458;SDS011;2752;49.992;8.422;2022-08-19T01:43:59;37.63;;;16.97;;
5458;SDS011;2752;49.992;8.422;2022-08-19T01:46:28;30.97;;;14.20;;
5458;SDS011;2752;49.992;8.422;2022-08-19T01:48:55;27.97;;;15.73;;
5458;SDS011;2752;49.992;8.422;2022-08-19T01:51:22;28.70;;;15.00;;
5458;SDS011;2752;49.992;8.422;2022-08-19T01:53:49;26.27;;;15.00;;
5458;SDS011;2752;49.992;8.422;2022-08-19T01:56:18;28.13;;;15.93;;
5458;SDS011;2752;49.992;8.422;2022-08-19T01:58:46;26.17;;;14.87;;
5458;SDS011;2752;49.992;8.422;2022-08-19T02:01:17;31.10;;;14.67;;
5458;SDS011;2752;49.992;8.422;2022-08-19T02:03:44;28.20;;;15.40;;
5458;SDS011;2752;49.992;8.422;2022-08-19T02:06:11;25.17;;;14.90;;
5458;SDS011;2752;49.992;8.422;2022-08-19T02:08:38;26.27;;;15.13;;
5458;SDS011;2752;49.992;8.422;2022-08-19T02:11:06;25.83;;;14.30;;
5458;SDS011;2752;49.992;8.422;2022-08-19T02:13:34;29.47;;;15.77;;
5458;SDS011;2752;49.992;8.422;2022-08-19T02:16:01;24.53;;;13.80;;
5458;SDS011;2752;49.992;8.422;2022-08-19T02:18:28;22.93;;;14.37;;
5458;SDS011;2752;49.992;8.422;2022-08-19T02:20:55;31.10;;;16.67;;
5458;SDS011;2752;49.992;8.422;2022-08-19T02:23:22;25.83;;;14.47;;
5458;SDS011;2752;49.992;8.422;2022-08-19T02:25:48;34.67;;;15.30;;
5458;SDS011;2752;49.992;8.422;2022-08-19T02:28:15;23.07;;;14.47;;
5458;SDS011;2752;49.992;8.422;2022-08-19T02:30:43;27.90;;;15.73;;
5458;SDS011;2752;49.992;8.422;2022-08-19T02:33:10;25.30;;;15.63;;
5458;SDS011;2752;49.992;8.422;2022-08-19T02:35:37;24.10;;;15.57;;
5458;SDS011;2752;49.992;8.422;2022-08-19T02:38:07;33.10;;;16.73;;
5458;SDS011;2752;49.992;8.422;2022-08-19T02:40:53;29.07;;;15.50;;
5458;SDS011;2752;49.992;8.422;2022-08-19T02:43:21;32.43;;;17.80;;
5458;SDS011;2752;49.992;8.422;2022-08-19T02:45:50;30.77;;;16.80;;
5458;SDS011;2752;49.992;8.422;2022-08-19T02:48:17;31.63;;;16.53;;
5458;SDS011;2752;49.992;8.422;2022-08-19T02:50:45;28.67;;;16.33;;
5458;SDS011;2752;49.992;8.422;2022-08-19T02:53:13;34.90;;;18.73;;
5458;SDS011;2752;49.992;8.422;2022-08-19T02:55:43;38.20;;;18.57;;
5458;SDS011;2752;49.992;8.422;2022-08-19T02:58:10;40.60;;;19.30;;
5458;SDS011;2752;49.992;8.422;2022-08-19T03:00:40;30.20;;;15.73;;
5458;SDS011;2752;49.992;8.422;2022-08-19T03:03:09;28.87;;;16.47;;
5458;SDS011;2752;49.992;8.422;2022-08-19T03:05:36;30.10;;;17.30;;
5458;SDS011;2752;49.992;8.422;2022-08-19T03:08:03;36.37;;;16.97;;
5458;SDS011;2752;49.992;8.422;2022-08-19T03:10:30;29.97;;;18.77;;
5458;SDS011;2752;49.992;8.422;2022-08-19T03:12:57;31.37;;;17.77;;
5458;SDS011;2752;49.992;8.422;2022-08-19T03:15:24;31.37;;;17.10;;
5458;SDS011;2752;49.992;8.422;2022-08-19T03:17:51;33.87;;;19.60;;
5458;SDS011;2752;49.992;8.422;2022-08-19T03:20:19;35.33;;;20.30;;
5458;SDS011;2752;49.992;8.422;2022-08-19T03:22:45;28.87;;;17.20;;
5458;SDS011;2752;49.992;8.422;2022-08-19T03:25:12;30.87;;;18.33;;
5458;SDS011;2752;49.992;8.422;2022-08-19T03:27:39;35.50;;;19.37;;
5458;SDS011;2752;49.992;8.422;2022-08-19T03:30:06;33.83;;;18.60;;
5458;SDS011;2752;49.992;8.422;2022-08-19T03:32:33;34.20;;;18.80;;
5458;SDS011;2752;49.992;8.422;2022-08-19T03:35:00;32.87;;;19.30;;
5458;SDS011;2752;49.992;8.422;2022-08-19T03:37:28;33.97;;;18.13;;
5458;SDS011;2752;49.992;8.422;2022-08-19T03:39:55;33.03;;;19.00;;
5458;SDS011;2752;49.992;8.422;2022-08-19T03:42:21;33.73;;;19.70;;
5458;SDS011;2752;49.992;8.422;2022-08-19T03:44:48;29.37;;;17.00;;
5458;SDS011;2752;49.992;8.422;2022-08-19T03:47:15;28.90;;;17.30;;
5458;SDS011;2752;49.992;8.422;2022-08-19T03:49:42;33.23;;;16.33;;
5458;SDS011;2752;49.992;8.422;2022-08-19T03:52:10;32.07;;;17.67;;
5458;SDS011;2752;49.992;8.422;2022-08-19T03:54:38;33.10;;;18.50;;
5458;SDS011;2752;49.992;8.422;2022-08-19T03:57:05;30.63;;;17.70;;
5458;SDS011;2752;49.992;8.422;2022-08-19T03:59:33;36.07;;;19.80;;
5458;SDS011;2752;49.992;8.422;2022-08-19T04:02:02;27.13;;;16.30;;
5458;SDS011;2752;49.992;8.422;2022-08-19T04:04:33;31.10;;;18.87;;
5458;SDS011;2752;49.992;8.422;2022-08-19T04:07:00;32.40;;;20.30;;
5458;SDS011;2752;49.992;8.422;2022-08-19T04:09:27;37.10;;;16.17;;
5458;SDS011;2752;49.992;8.422;2022-08-19T04:11:56;35.50;;;19.23;;
5458;SDS011;2752;49.992;8.422;2022-08-19T04:14:23;29.93;;;17.87;;
5458;SDS011;2752;49.992;8.422;2022-08-19T04:16:53;29.70;;;18.23;;
5458;SDS011;2752;49.992;8.422;2022-08-19T04:19:20;32.63;;;18.47;;
5458;SDS011;2752;49.992;8.422;2022-08-19T04:21:48;42.87;;;20.23;;
5458;SDS011;2752;49.992;8.422;2022-08-19T04:24:17;28.70;;;18.93;;
5458;SDS011;2752;49.992;8.422;2022-08-19T04:26:44;29.00;;;16.83;;
5458;SDS011;2752;49.992;8.422;2022-08-19T04:29:14;29.47;;;18.50;;
5458;SDS011;2752;49.992;8.422;2022-08-19T04:31:43;29.03;;;18.37;;
5458;SDS011;2752;49.992;8.422;2022-08-19T04:34:12;27.30;;;16.90;;
5458;SDS011;2752;49.992;8.422;2022-08-19T04:36:41;33.73;;;18.20;;
5458;SDS011;2752;49.992;8.422;2022-08-19T04:39:10;36.00;;;19.17;;
5458;SDS011;2752;49.992;8.422;2022-08-19T04:41:38;34.90;;;16.40;;
5458;SDS011;2752;49.992;8.422;2022-08-19T04:44:23;29.50;;;17.90;;
5458;SDS011;2752;49.992;8.422;2022-08-19T04:46:50;31.67;;;17.53;;
5458;SDS011;2752;49.992;8.422;2022-08-19T04:49:18;29.10;;;16.93;;
5458;SDS011;2752;49.992;8.422;2022-08-19T04:51:47;39.00;;;17.53;;
5458;SDS011;2752;49.992;8.422;2022-08-19T04:54:14;31.70;;;17.33;;
5458;SDS011;2752;49.992;8.422;2022-08-19T04:56:41;27.63;;;16.80;;
5458;SDS011;2752;49.992;8.422;2022-08-19T04:59:08;32.23;;;16.37;;
5458;SDS011;2752;49.992;8.422;2022-08-19T05:01:37;32.87;;;16.73;;
5458;SDS011;2752;49.992;8.422;2022-08-19T05:04:04;28.40;;;18.20;;
5458;SDS011;2752;49.992;8.422;2022-08-19T05:06:32;36.80;;;16.83;;
5458;SDS011;2752;49.992;8.422;2022-08-19T05:09:01;36.23;;;18.23;;
5458;SDS011;2752;49.992;8.422;2022-08-19T05:11:30;31.40;;;17.53;;
5458;SDS011;2752;49.992;8.422;2022-08-19T05:13:58;29.60;;;18.33;;
5458;SDS011;2752;49.992;8.422;2022-08-19T05:16:25;31.90;;;18.13;;
5458;SDS011;2752;49.992;8.422;2022-08-19T05:18:54;37.10;;;18.00;;
5458;SDS011;2752;49.992;8.422;2022-08-19T05:21:40;38.50;;;19.13;;
5458;SDS011;2752;49.992;8.422;2022-08-19T05:24:25;35.43;;;18.77;;
5458;SDS011;2752;49.992;8.422;2022-08-19T05:26:53;32.37;;;20.67;;
5458;SDS011;2752;49.992;8.422;2022-08-19T05:29:23;28.83;;;16.90;;
5458;SDS011;2752;49.992;8.422;2022-08-19T05:31:52;28.27;;;16.50;;
5458;SDS011;2752;49.992;8.422;2022-08-19T05:34:21;29.60;;;17.70;;
5458;SDS011;2752;49.992;8.422;2022-08-19T05:36:51;32.77;;;18.70;;
5458;SDS011;2752;49.992;8.422;2022-08-19T05:39:21;27.97;;;16.80;;
5458;SDS011;2752;49.992;8.422;2022-08-19T05:41:49;25.70;;;16.30;;
5458;SDS011;2752;49.992;8.422;2022-08-19T05:44:18;26.83;;;17.40;;
5458;SDS011;2752;49.992;8.422;2022-08-19T05:46:46;38.13;;;17.90;;
5458;SDS011;2752;49.992;8.422;2022-08-19T05:49:13;30.33;;;17.33;;
5458;SDS011;2752;49.992;8.422;2022-08-19T05:51:43;29.93;;;15.73;;
5458;SDS011;2752;49.992;8.422;2022-08-19T05:54:10;23.67;;;14.23;;
5458;SDS011;2752;49.992;8.422;2022-08-19T05:56:38;22.67;;;15.37;;
5458;SDS011;2752;49.992;8.422;2022-08-19T05:59:05;28.73;;;14.80;;
5458;SDS011;2752;49.992;8.422;2022-08-19T06:01:35;27.33;;;13.37;;
5458;SDS011;2752;49.992;8.422;2022-08-19T06:04:03;22.07;;;13.87;;
5458;SDS011;2752;49.992;8.422;2022-08-19T06:06:30;34.57;;;15.20;;
5458;SDS011;2752;49.992;8.422;2022-08-19T06:09:00;20.93;;;13.87;;
5458;SDS011;2752;49.992;8.422;2022-08-19T06:11:31;20.93;;;13.47;;
5458;SDS011;2752;49.992;8.422;2022-08-19T06:14:00;24.00;;;14.40;;
5458;SDS011;2752;49.992;8.422;2022-08-19T06:16:29;20.60;;;13.77;;
5458;SDS011;2752;49.992;8.422;2022-08-19T06:19:00;24.83;;;13.53;;
5458;SDS011;2752;49.992;8.422;2022-08-19T06:21:31;23.23;;;14.83;;
5458;SDS011;2752;49.992;8.422;2022-08-19T06:24:04;24.30;;;12.93;;
5458;SDS011;2752;49.992;8.422;2022-08-19T06:26:32;23.60;;;13.27;;
5458;SDS011;2752;49.992;8.422;2022-08-19T06:29:00;25.47;;;13.03;;
5458;SDS011;2752;49.992;8.422;2022-08-19T06:31:27;23.07;;;13.97;;
5458;SDS011;2752;49.992;8.422;2022-08-19T06:33:56;27.03;;;14.17;;
5458;SDS011;2752;49.992;8.422;2022-08-19T06:36:23;22.93;;;14.07;;
5458;SDS011;2752;49.992;8.422;2022-08-19T06:38:55;28.40;;;13.83;;
5458;SDS011;2752;49.992;8.422;2022-08-19T06:41:24;28.57;;;13.57;;
5458;SDS011;2752;49.992;8.422;2022-08-19T06:43:52;25.57;;;13.47;;
5458;SDS011;2752;49.992;8.422;2022-08-19T06:46:19;17.73;;;12.47;;
5458;SDS011;2752;49.992;8.422;2022-08-19T06:48:47;29.00;;;11.13;;
5458;SDS011;2752;49.992;8.422;2022-08-19T06:51:14;24.00;;;13.53;;
5458;SDS011;2752;49.992;8.422;2022-08-19T06:53:43;24.17;;;11.77;;
5458;SDS011;2752;49.992;8.422;2022-08-19T06:56:12;22.73;;;11.83;;
5458;SDS011;2752;49.992;8.422;2022-08-19T06:58:40;19.43;;;9.60;;
5458;SDS011;2752;49.992;8.422;2022-08-19T07:01:07;22.13;;;12.93;;
5458;SDS011;2752;49.992;8.422;2022-08-19T07:03:35;20.77;;;11.10;;
5458;SDS011;2752;49.992;8.422;2022-08-19T07:06:04;17.90;;;11.20;;
5458;SDS011;2752;49.992;8.422;2022-08-19T07:08:32;18.83;;;10.43;;
5458;SDS011;2752;49.992;8.422;2022-08-19T07:11:01;17.33;;;9.63;;
5458;SDS011;2752;49.992;8.422;2022-08-19T07:13:28;18.60;;;8.90;;
5458;SDS011;2752;49.992;8.422;2022-08-19T07:16:03;14.23;;;8.50;;
5458;SDS011;2752;49.992;8.422;2022-08-19T07:18:31;15.10;;;9.13;;
5458;SDS011;2752;49.992;8.422;2022-08-19T07:21:02;16.10;;;8.80;;
5458;SDS011;2752;49.992;8.422;2022-08-19T07:23:29;17.50;;;9.10;;
5458;SDS011;2752;49.992;8.422;2022-08-19T07:25:56;15.27;;;9.30;;
5458;SDS011;2752;49.992;8.422;2022-08-19T07:28:23;12.80;;;9.20;;
5458;SDS011;2752;49.992;8.422;2022-08-19T07:30:49;16.93;;;9.90;;
5458;SDS011;2752;49.992;8.422;2022-08-19T07:33:18;15.13;;;7.93;;
5458;SDS011;2752;49.992;8.422;2022-08-19T07:35:45;18.60;;;8.30;;
5458;SDS011;2752;49.992;8.422;2022-08-19T07:38:12;11.73;;;7.00;;
5458;SDS011;2752;49.992;8.422;2022-08-19T07:40:39;16.87;;;9.00;;
5458;SDS011;2752;49.992;8.422;2022-08-19T07:43:08;16.27;;;8.37;;
5458;SDS011;2752;49.992;8.422;2022-08-19T07:45:34;14.70;;;8.17;;
5458;SDS011;2752;49.992;8.422;2022-08-19T07:48:01;11.23;;;7.83;;
5458;SDS011;2752;49.992;8.422;2022-08-19T07:50:30;17.27;;;7.77;;
5458;SDS011;2752;49.992;8.422;2022-08-19T07:52:56;17.10;;;7.43;;
5458;SDS011;2752;49.992;8.422;2022-08-19T07:55:24;19.33;;;8.13;;
5458;SDS011;2752;49.992;8.422;2022-08-19T07:57:51;15.13;;;7.60;;
5458;SDS011;2752;49.992;8.422;2022-08-19T08:00:18;13.17;;;8.10;;
5458;SDS011;2752;49.992;8.422;2022-08-19T08:02:45;10.43;;;8.00;;
5458;SDS011;2752;49.992;8.422;2022-08-19T08:05:12;15.37;;;7.17;;
5458;SDS011;2752;49.992;8.422;2022-08-19T08:07:57;16.30;;;7.63;;
5458;SDS011;2752;49.992;8.422;2022-08-19T08:10:42;14.53;;;9.03;;
5458;SDS011;2752;49.992;8.422;2022-08-19T08:13:08;20.60;;;12.83;;
5458;SDS011;2752;49.992;8.422;2022-08-19T08:15:35;29.40;;;14.23;;
5458;SDS011;2752;49.992;8.422;2022-08-19T08:18:03;25.17;;;14.17;;
5458;SDS011;2752;49.992;8.422;2022-08-19T08:20:30;18.87;;;11.40;;
5458;SDS011;2752;49.992;8.422;2022-08-19T08:22:58;23.03;;;11.27;;
5458;SDS011;2752;49.992;8.422;2022-08-19T08:25:43;21.30;;;12.20;;
5458;SDS011;2752;49.992;8.422;2022-08-19T08:28:10;24.23;;;10.40;;
5458;SDS011;2752;49.992;8.422;2022-08-19T08:30:37;17.03;;;10.60;;
5458;SDS011;2752;49.992;8.422;2022-08-19T08:33:06;15.90;;;9.47;;
5458;SDS011;2752;49.992;8.422;2022-08-19T08:35:33;15.27;;;9.60;;
5458;SDS011;2752;49.992;8.422;2022-08-19T08:38:02;12.80;;;8.53;;
5458;SDS011;2752;49.992;8.422;2022-08-19T08:40:30;13.07;;;7.13;;
5458;SDS011;2752;49.992;8.422;2022-08-19T08:43:06;13.27;;;7.80;;
5458;SDS011;2752;49.992;8.422;2022-08-19T08:45:38;15.33;;;7.37;;
5458;SDS011;2752;49.992;8.422;2022-08-19T08:48:18;11.00;;;7.00;;
5458;SDS011;2752;49.992;8.422;2022-08-19T08:50:50;22.53;;;8.67;;
5458;SDS011;2752;49.992;8.422;2022-08-19T08:53:21;14.87;;;8.80;;
5458;SDS011;2752;49.992;8.422;2022-08-19T08:55:50;13.30;;;8.47;;
5458;SDS011;2752;49.992;8.422;2022-08-19T08:58:17;17.50;;;7.63;;
5458;SDS011;2752;49.992;8.422;2022-08-19T09:00:52;14.17;;;8.50;;
5458;SDS011;2752;49.992;8.422;2022-08-19T09:03:19;10.00;;;7.17;;
5458;SDS011;2752;49.992;8.422;2022-08-19T09:05:49;12.70;;;9.13;;
5458;SDS011;2752;49.992;8.422;2022-08-19T09:08:28;11.70;;;8.53;;
5458;SDS011;2752;49.992;8.422;2022-08-19T09:11:05;18.40;;;11.43;;
5458;SDS011;2752;49.992;8.422;2022-08-19T09:13:36;18.83;;;10.03;;
5458;SDS011;2752;49.992;8.422;2022-08-19T09:16:12;19.27;;;10.53;;
5458;SDS011;2752;49.992;8.422;2022-08-19T09:18:44;21.70;;;12.83;;
5458;SDS011;2752;49.992;8.422;2022-08-19T09:21:12;19.27;;;11.63;;
5458;SDS011;2752;49.992;8.422;2022-08-19T09:23:40;22.13;;;9.00;;
5458;SDS011;2752;49.992;8.422;2022-08-19T09:26:08;17.83;;;10.80;;
5458;SDS011;2752;49.992;8.422;2022-08-19T09:28:38;16.37;;;9.47;;
5458;SDS011;2752;49.992;8.422;2022-08-19T09:31:08;15.63;;;10.90;;
5458;SDS011;2752;49.992;8.422;2022-08-19T09:33:35;17.87;;;12.57;;
5458;SDS011;2752;49.992;8.422;2022-08-19T09:36:04;17.00;;;10.23;;
5458;SDS011;2752;49.992;8.422;2022-08-19T09:38:32;25.90;;;11.83;;
5458;SDS011;2752;49.992;8.422;2022-08-19T09:41:03;18.33;;;10.30;;
5458;SDS011;2752;49.992;8.422;2022-08-19T09:43:30;15.30;;;10.50;;
5458;SDS011;2752;49.992;8.422;2022-08-19T09:45:58;16.27;;;11.90;;
5458;SDS011;2752;49.992;8.422;2022-08-19T09:48:25;23.30;;;13.90;;
5458;SDS011;2752;49.992;8.422;2022-08-19T09:50:52;24.53;;;15.33;;
5458;SDS011;2752;49.992;8.422;2022-08-19T09:53:19;18.07;;;11.73;;
5458;SDS011;2752;49.992;8.422;2022-08-19T09:55:47;19.07;;;12.30;;
5458;SDS011;2752;49.992;8.422;2022-08-19T09:58:19;19.40;;;12.90;;
5458;SDS011;2752;49.992;8.422;2022-08-19T10:00:52;21.23;;;15.20;;
5458;SDS011;2752;49.992;8.422;2022-08-19T10:03:21;19.10;;;14.20;;
5458;SDS011;2752;49.992;8.422;2022-08-19T10:05:50;21.50;;;14.40;;
5458;SDS011;2752;49.992;8.422;2022-08-19T10:08:18;20.07;;;14.33;;
5458;SDS011;2752;49.992;8.422;2022-08-19T10:10:51;25.33;;;16.30;;
5458;SDS011;2752;49.992;8.422;2022-08-19T10:13:22;30.50;;;14.60;;
5458;SDS011;2752;49.992;8.422;2022-08-19T10:15:51;26.40;;;16.53;;
5458;SDS011;2752;49.992;8.422;2022-08-19T10:18:21;23.53;;;16.03;;
5458;SDS011;2752;49.992;8.422;2022-08-19T10:20:50;25.30;;;16.83;;
5458;SDS011;2752;49.992;8.422;2022-08-19T10:23:20;21.13;;;14.80;;
5458;SDS011;2752;49.992;8.422;2022-08-19T10:25:49;19.60;;;14.30;;
5458;SDS011;2752;49.992;8.422;2022-08-19T10:28:18;23.23;;;16.93;;
5458;SDS011;2752;49.992;8.422;2022-08-19T10:30:49;23.93;;;16.50;;
5458;SDS011;2752;49.992;8.422;2022-08-19T10:33:18;24.00;;;15.47;;
5458;SDS011;2752;49.992;8.422;2022-08-19T10:35:47;38.17;;;13.40;;
5458;SDS011;2752;49.992;8.422;2022-08-19T10:38:24;20.37;;;12.47;;
5458;SDS011;2752;49.992;8.422;2022-08-19T10:40:55;19.40;;;12.20;;
5458;SDS011;2752;49.992;8.422;2022-08-19T10:43:25;19.33;;;12.60;;
5458;SDS011;2752;49.992;8.422;2022-08-19T10:45:53;16.57;;;12.97;;
5458;SDS011;2752;49.992;8.422;2022-08-19T10:48:25;19.23;;;13.17;;
5458;SDS011;2752;49.992;8.422;2022-08-19T10:50:53;20.90;;;12.60;;
5458;SDS011;2752;49.992;8.422;2022-08-19T10:53:38;15.70;;;12.40;;
5458;SDS011;2752;49.992;8.422;2022-08-19T10:56:13;13.80;;;9.83;;
5458;SDS011;2752;49.992;8.422;2022-08-19T10:59:01;14.60;;;11.17;;
5458;SDS011;2752;49.992;8.422;2022-08-19T11:01:29;18.43;;;12.70;;
5458;SDS011;2752;49.992;8.422;2022-08-19T11:03:59;17.87;;;12.93;;
5458;SDS011;2752;49.992;8.422;2022-08-19T11:06:29;21.03;;;13.53;;
5458;SDS011;2752;49.992;8.422;2022-08-19T11:09:01;18.33;;;12.30;;
5458;SDS011;2752;49.992;8.422;2022-08-19T11:11:29;14.53;;;10.60;;
5458;SDS011;2752;49.992;8.422;2022-08-19T11:14:07;13.87;;;10.43;;
5458;SDS011;2752;49.992;8.422;2022-08-19T11:16:34;17.67;;;10.77;;
5458;SDS011;2752;49.992;8.422;2022-08-19T11:19:03;14.10;;;9.57;;
5458;SDS011;2752;49.992;8.422;2022-08-19T11:21:33;14.10;;;9.47;;
5458;SDS011;2752;49.992;8.422;2022-08-19T11:24:02;17.20;;;10.90;;
5458;SDS011;2752;49.992;8.422;2022-08-19T11:26:31;23.80;;;10.10;;
5458;SDS011;2752;49.992;8.422;2022-08-19T11:28:59;13.57;;;10.27;;
5458;SDS011;2752;49.992;8.422;2022-08-19T11:31:28;14.57;;;9.33;;
5458;SDS011;2752;49.992;8.422;2022-08-19T11:33:58;15.00;;;9.30;;
5458;SDS011;2752;49.992;8.422;2022-08-19T11:36:28;11.27;;;9.03;;
5458;SDS011;2752;49.992;8.422;2022-08-19T11:38:56;16.23;;;8.70;;
5458;SDS011;2752;49.992;8.422;2022-08-19T11:41:23;10.97;;;7.70;;
5458;SDS011;2752;49.992;8.422;2022-08-19T11:43:50;12.30;;;7.97;;
5458;SDS011;2752;49.992;8.422;2022-08-19T11:46:19;9.83;;;6.57;;
5458;SDS011;2752;49.992;8.422;2022-08-19T11:48:47;9.37;;;7.07;;
5458;SDS011;2752;49.992;8.422;2022-08-19T11:51:16;9.47;;;7.13;;
5458;SDS011;2752;49.992;8.422;2022-08-19T11:53:46;7.20;;;6.33;;
5458;SDS011;2752;49.992;8.422;2022-08-19T11:56:13;7.87;;;6.03;;
5458;SDS011;2752;49.992;8.422;2022-08-19T11:58:40;8.63;;;6.50;;
5458;SDS011;2752;49.992;8.422;2022-08-19T12:01:08;8.70;;;5.63;;
5458;SDS011;2752;49.992;8.422;2022-08-19T12:03:36;9.33;;;6.13;;
5458;SDS011;2752;49.992;8.422;2022-08-19T12:06:04;7.37;;;5.90;;
5458;SDS011;2752;49.992;8.422;2022-08-19T12:08:32;6.80;;;5.87;;
5458;SDS011;2752;49.992;8.422;2022-08-19T12:10:58;7.30;;;5.90;;
5458;SDS011;2752;49.992;8.422;2022-08-19T12:13:26;12.50;;;6.17;;
5458;SDS011;2752;49.992;8.422;2022-08-19T12:15:53;6.97;;;5.30;;
5458;SDS011;2752;49.992;8.422;2022-08-19T12:18:20;9.37;;;5.43;;
5458;SDS011;2752;49.992;8.422;2022-08-19T12:20:46;7.50;;;5.03;;
5458;SDS011;2752;49.992;8.422;2022-08-19T12:23:14;6.17;;;5.40;;
5458;SDS011;2752;49.992;8.422;2022-08-19T12:25:43;7.47;;;5.17;;
5458;SDS011;2752;49.992;8.422;2022-08-19T12:28:15;6.43;;;4.83;;
5458;SDS011;2752;49.992;8.422;2022-08-19T12:30:42;5.53;;;4.87;;
5458;SDS011;2752;49.992;8.422;2022-08-19T12:33:08;8.23;;;5.00;;
5458;SDS011;2752;49.992;8.422;2022-08-19T12:35:35;7.63;;;4.23;;
5458;SDS011;2752;49.992;8.422;2022-08-19T12:38:05;5.10;;;3.80;;
5458;SDS011;2752;49.992;8.422;2022-08-19T12:40:33;8.70;;;4.33;;
5458;SDS011;2752;49.992;8.422;2022-08-19T12:43:00;6.47;;;4.40;;
5458;SDS011;2752;49.992;8.422;2022-08-19T12:45:27;4.93;;;4.27;;
5458;SDS011;2752;49.992;8.422;2022-08-19T12:47:54;6.80;;;5.43;;
5458;SDS011;2752;49.992;8.422;2022-08-19T12:50:21;6.50;;;5.03;;
5458;SDS011;2752;49.992;8.422;2022-08-19T12:52:47;14.43;;;4.47;;
5458;SDS011;2752;49.992;8.422;2022-08-19T12:55:14;5.10;;;4.27;;
5458;SDS011;2752;49.992;8.422;2022-08-19T12:57:44;7.47;;;4.50;;
5458;SDS011;2752;49.992;8.422;2022-08-19T13:00:14;7.80;;;4.40;;
5458;SDS011;2752;49.992;8.422;2022-08-19T13:02:44;7.43;;;3.80;;
5458;SDS011;2752;49.992;8.422;2022-08-19T13:05:16;4.50;;;4.00;;
5458;SDS011;2752;49.992;8.422;2022-08-19T13:07:47;4.33;;;3.83;;
5458;SDS011;2752;49.992;8.422;2022-08-19T13:10:16;3.67;;;3.37;;
5458;SDS011;2752;49.992;8.422;2022-08-19T13:12:46;3.70;;;2.90;;
5458;SDS011;2752;49.992;8.422;2022-08-19T13:15:14;4.07;;;3.67;;
5458;SDS011;2752;49.992;8.422;2022-08-19T13:17:45;4.93;;;3.70;;
5458;SDS011;2752;49.992;8.422;2022-08-19T13:20:13;6.30;;;3.30;;
5458;SDS011;2752;49.992;8.422;2022-08-19T13:22:41;4.70;;;3.70;;
5458;SDS011;2752;49.992;8.422;2022-08-19T13:25:09;5.80;;;3.53;;
5458;SDS011;2752;49.992;8.422;2022-08-19T13:27:38;7.17;;;4.40;;
5458;SDS011;2752;49.992;8.422;2022-08-19T13:30:09;7.97;;;4.60;;
5458;SDS011;2752;49.992;8.422;2022-08-19T13:32:54;3.97;;;3.53;;
5458;SDS011;2752;49.992;8.422;2022-08-19T13:35:36;7.33;;;4.40;;
5458;SDS011;2752;49.992;8.422;2022-08-19T13:38:04;7.83;;;4.37;;
5458;SDS011;2752;49.992;8.422;2022-08-19T13:40:31;6.73;;;4.57;;
5458;SDS011;2752;49.992;8.422;2022-08-19T13:42:59;4.80;;;3.90;;
5458;SDS011;2752;49.992;8.422;2022-08-19T13:45:28;4.63;;;4.20;;
5458;SDS011;2752;49.992;8.422;2022-08-19T13:47:57;4.57;;;2.90;;
5458;SDS011;2752;49.992;8.422;2022-08-19T13:50:24;4.67;;;3.40;;
5458;SDS011;2752;49.992;8.422;2022-08-19T13:52:54;8.47;;;3.97;;
5458;SDS011;2752;49.992;8.422;2022-08-19T13:55:22;4.10;;;3.70;;
5458;SDS011;2752;49.992;8.422;2022-08-19T13:57:50;4.30;;;3.77;;
5458;SDS011;2752;49.992;8.422;2022-08-19T14:00:18;5.03;;;3.70;;
5458;SDS011;2752;49.992;8.422;2022-08-19T14:02:49;4.80;;;4.07;;
5458;SDS011;2752;49.992;8.422;2022-08-19T14:05:17;4.53;;;3.50;;
5458;SDS011;2752;49.992;8.422;2022-08-19T14:07:45;5.53;;;4.20;;
5458;SDS011;2752;49.992;8.422;2022-08-19T14:10:12;4.83;;;3.97;;
5458;SDS011;2752;49.992;8.422;2022-08-19T14:12:39;10.53;;;5.27;;
5458;SDS011;2752;49.992;8.422;2022-08-19T14:15:07;7.23;;;5.87;;
5458;SDS011;2752;49.992;8.422;2022-08-19T14:17:37;12.03;;;5.37;;
5458;SDS011;2752;49.992;8.422;2022-08-19T14:20:06;6.10;;;5.03;;
5458;SDS011;2752;49.992;8.422;2022-08-19T14:22:35;7.07;;;5.53;;
5458;SDS011;2752;49.992;8.422;2022-08-19T14:25:03;6.60;;;5.90;;
5458;SDS011;2752;49.992;8.422;2022-08-19T14:27:32;11.67;;;5.33;;
5458;SDS011;2752;49.992;8.422;2022-08-19T14:29:58;5.07;;;4.67;;
5458;SDS011;2752;49.992;8.422;2022-08-19T14:32:25;11.27;;;5.67;;
5458;SDS011;2752;49.992;8.422;2022-08-19T14:34:52;8.17;;;5.80;;
5458;SDS011;2752;49.992;8.422;2022-08-19T14:37:20;9.23;;;5.00;;
5458;SDS011;2752;49.992;8.422;2022-08-19T14:39:47;9.03;;;5.07;;
5458;SDS011;2752;49.992;8.422;2022-08-19T14:42:14;7.30;;;5.23;;
5458;SDS011;2752;49.992;8.422;2022-08-19T14:44:41;7.30;;;5.10;;
5458;SDS011;2752;49.992;8.422;2022-08-19T14:47:08;7.17;;;5.83;;
5458;SDS011;2752;49.992;8.422;2022-08-19T14:49:35;6.57;;;5.07;;
5458;SDS011;2752;49.992;8.422;2022-08-19T14:52:04;7.93;;;5.67;;
5458;SDS011;2752;49.992;8.422;2022-08-19T14:54:32;6.63;;;4.43;;
5458;SDS011;2752;49.992;8.422;2022-08-19T14:56:59;6.47;;;4.53;;
5458;SDS011;2752;49.992;8.422;2022-08-19T14:59:25;12.20;;;4.53;;
5458;SDS011;2752;49.992;8.422;2022-08-19T15:01:52;6.57;;;4.50;;
5458;SDS011;2752;49.992;8.422;2022-08-19T15:04:19;7.10;;;5.10;;